createdAt,value
2019-05-17T00:01:39.894Z,6.72
2019-05-17T00:04:48.755Z,6.88
2019-05-17T00:07:56.664Z,6.70
2019-05-17T00:11:06.703Z,6.56
2019-05-17T00:14:12.861Z,6.41
2019-05-17T00:17:19.470Z,6.48
2019-05-17T00:20:26.953Z,6.41
2019-05-17T00:23:33.853Z,6.57
2019-05-17T00:26:40.431Z,6.51
2019-05-17T00:29:49.665Z,6.72
2019-05-17T00:32:56.907Z,6.76
2019-05-17T00:36:03.668Z,6.83
2019-05-17T00:39:10.195Z,6.77
2019-05-17T00:42:17.318Z,6.60
2019-05-17T00:45:23.883Z,6.55
2019-05-17T00:48:30.503Z,6.66
2019-05-17T00:51:37.073Z,6.86
2019-05-17T00:54:43.560Z,6.55
2019-05-17T00:57:52.871Z,6.62
2019-05-17T01:00:59.371Z,6.44
2019-05-17T01:04:06.815Z,6.62
2019-05-17T01:07:13.613Z,6.69
2019-05-17T01:10:20.331Z,6.65
2019-05-17T01:13:26.981Z,6.74
2019-05-17T01:16:33.590Z,6.71
2019-05-17T01:19:41.950Z,6.75
2019-05-17T01:22:48.862Z,6.74
2019-05-17T01:25:56.991Z,6.85
2019-05-17T01:29:03.660Z,6.93
2019-05-17T01:32:10.272Z,6.98
2019-05-17T01:35:17.184Z,6.88
2019-05-17T01:38:26.965Z,6.91
2019-05-17T01:41:33.675Z,6.94
2019-05-17T01:44:42.960Z,6.97
2019-05-17T01:47:51.153Z,7.04
2019-05-17T01:50:59.508Z,7.06
2019-05-17T01:54:06.819Z,7.06
2019-05-17T01:57:17.008Z,7.02
2019-05-17T02:00:26.423Z,7.02
2019-05-17T02:03:32.370Z,7.03
2019-05-17T02:06:38.840Z,7.01
2019-05-17T02:09:47.725Z,7.02
2019-05-17T02:12:54.287Z,7.00
2019-05-17T02:16:00.808Z,7.02
2019-05-17T02:19:09.104Z,7.03
2019-05-17T02:22:16.753Z,7.03
2019-05-17T02:25:23.688Z,7.04
2019-05-17T02:28:32.123Z,7.03
2019-05-17T02:31:39.207Z,7.07
2019-05-17T02:34:48.466Z,7.11
2019-05-17T02:37:54.938Z,7.11
2019-05-17T02:41:03.293Z,7.09
2019-05-17T02:44:13.004Z,7.06
2019-05-17T02:47:22.944Z,7.10
2019-05-17T02:50:28.005Z,7.07
2019-05-17T02:53:35.022Z,7.12
2019-05-17T02:56:43.542Z,7.15
2019-05-17T02:59:52.569Z,6.99
2019-05-17T03:02:58.140Z,7.07
2019-05-17T03:06:04.814Z,7.10
2019-05-17T03:09:13.723Z,7.15
2019-05-17T03:12:23.440Z,7.15
2019-05-17T03:15:32.181Z,7.18
2019-05-17T03:18:37.976Z,7.20
2019-05-17T03:21:45.275Z,7.21
2019-05-17T03:24:53.332Z,7.22
2019-05-17T03:28:02.900Z,7.21
2019-05-17T03:31:09.597Z,7.23
2019-05-17T03:34:17.912Z,7.19
2019-05-17T03:37:30.121Z,7.18
2019-05-17T03:41:01.001Z,7.21
2019-05-17T03:43:44.265Z,7.18
2019-05-17T03:46:53.224Z,7.14
2019-05-17T03:50:03.049Z,7.21
2019-05-17T03:53:13.160Z,7.24
2019-05-17T03:56:18.803Z,7.24
2019-05-17T03:59:25.830Z,7.25
2019-05-17T04:02:32.784Z,7.24
2019-05-17T04:05:42.626Z,7.22
2019-05-17T04:08:52.635Z,7.25
2019-05-17T04:11:57.915Z,7.26
2019-05-17T04:15:04.959Z,7.30
2019-05-17T04:18:12.991Z,7.34
2019-05-17T04:21:23.159Z,7.40
2019-05-17T04:24:28.382Z,7.40
2019-05-17T04:27:34.903Z,7.44
2019-05-17T04:30:43.305Z,7.46
2019-05-17T04:33:53.355Z,7.49
2019-05-17T04:36:58.736Z,7.47
2019-05-17T04:40:05.759Z,7.47
2019-05-17T04:43:13.686Z,7.44
2019-05-17T04:46:23.524Z,7.45
2019-05-17T04:49:29.159Z,7.48
2019-05-17T04:52:35.828Z,7.50
2019-05-17T04:55:43.068Z,7.49
2019-05-17T04:58:54.139Z,7.53
2019-05-17T05:02:02.690Z,7.53
2019-05-17T05:05:08.124Z,7.58
2019-05-17T05:08:14.742Z,7.56
2019-05-17T05:11:23.291Z,7.59
2019-05-17T05:14:32.620Z,7.62
2019-05-17T05:17:37.962Z,7.70
2019-05-17T05:20:45.928Z,7.71
2019-05-17T05:23:52.457Z,7.74
2019-05-17T05:26:58.881Z,7.82
2019-05-17T05:30:05.983Z,7.77
2019-05-17T05:33:13.133Z,7.84
2019-05-17T05:36:22.066Z,7.92
2019-05-17T05:39:28.501Z,7.91
2019-05-17T05:42:35.046Z,7.97
2019-05-17T05:45:41.971Z,7.97
2019-05-17T05:48:48.598Z,8.11
2019-05-17T05:51:55.102Z,8.22
2019-05-17T05:55:02.202Z,8.29
2019-05-17T05:58:08.590Z,8.34
2019-05-17T06:01:15.185Z,8.45
2019-05-17T06:04:22.377Z,8.51
2019-05-17T06:07:29.054Z,8.52
2019-05-17T06:10:35.569Z,8.48
2019-05-17T06:13:42.211Z,8.65
2019-05-17T06:16:48.782Z,8.64
2019-05-17T06:19:55.526Z,8.74
2019-05-17T06:23:02.538Z,8.85
2019-05-17T06:26:12.160Z,8.88
2019-05-17T06:29:17.589Z,9.00
2019-05-17T06:32:24.102Z,9.01
2019-05-17T06:35:32.516Z,9.13
2019-05-17T06:38:39.124Z,9.21
2019-05-17T06:41:46.044Z,9.25
2019-05-17T06:44:53.881Z,9.30
2019-05-17T06:48:02.336Z,9.44
2019-05-17T06:51:11.903Z,9.48
2019-05-17T06:54:18.581Z,9.55
2019-05-17T06:57:25.637Z,9.61
2019-05-17T07:00:32.421Z,9.65
2019-05-17T07:03:39.949Z,9.73
2019-05-17T07:07:10.645Z,9.72
2019-05-17T07:10:19.457Z,9.71
2019-05-17T07:13:25.716Z,9.67
2019-05-17T07:16:32.194Z,9.78
2019-05-17T07:19:40.085Z,9.90
2019-05-17T07:22:50.715Z,10.08
2019-05-17T07:25:59.460Z,10.10
2019-05-17T07:29:06.136Z,10.14
2019-05-17T07:32:13.920Z,10.14
2019-05-17T07:35:20.865Z,10.40
2019-05-17T07:38:27.339Z,10.40
2019-05-17T07:41:33.932Z,10.54
2019-05-17T07:44:40.778Z,10.71
2019-05-17T07:47:49.479Z,10.71
2019-05-17T07:50:56.367Z,10.83
2019-05-17T07:54:02.891Z,10.77
2019-05-17T07:57:10.378Z,10.87
2019-05-17T08:00:20.147Z,10.72
2019-05-17T08:03:26.980Z,10.71
2019-05-17T08:06:33.554Z,10.83
2019-05-17T08:09:43.209Z,10.84
2019-05-17T08:12:54.160Z,10.89
2019-05-17T08:16:00.674Z,11.05
2019-05-17T08:19:10.305Z,11.05
2019-05-17T08:22:21.014Z,11.12
2019-05-17T08:25:27.577Z,11.23
2019-05-17T08:28:34.557Z,11.21
2019-05-17T08:31:46.081Z,11.32
2019-05-17T08:34:51.954Z,11.43
2019-05-17T08:38:01.232Z,11.45
2019-05-17T08:41:10.326Z,11.54
2019-05-17T08:44:19.246Z,11.66
2019-05-17T08:47:25.878Z,12.35
2019-05-17T08:50:35.270Z,12.04
2019-05-17T08:53:41.670Z,12.04
2019-05-17T08:56:50.371Z,12.22
2019-05-17T08:59:56.563Z,12.70
2019-05-17T09:03:03.568Z,12.28
2019-05-17T09:06:12.370Z,12.02
2019-05-17T09:09:20.360Z,12.07
2019-05-17T09:12:26.634Z,12.13
2019-05-17T09:15:33.112Z,12.57
2019-05-17T09:18:39.714Z,13.06
2019-05-17T09:21:50.300Z,13.15
2019-05-17T09:25:00.069Z,12.81
2019-05-17T09:28:06.799Z,12.84
2019-05-17T09:31:13.403Z,12.89
2019-05-17T09:34:20.339Z,12.82
2019-05-17T09:37:30.317Z,13.13
2019-05-17T09:40:36.234Z,13.25
2019-05-17T09:43:42.875Z,13.70
2019-05-17T09:46:50.410Z,13.89
2019-05-17T09:49:57.418Z,14.11
2019-05-17T09:53:04.071Z,13.87
2019-05-17T09:56:10.703Z,13.74
2019-05-17T09:59:17.248Z,13.79
2019-05-17T10:02:25.209Z,13.73
2019-05-17T10:05:32.632Z,13.67
2019-05-17T10:08:39.476Z,13.87
2019-05-17T10:11:49.288Z,13.97
2019-05-17T10:14:56.164Z,14.06
2019-05-17T10:18:04.235Z,14.01
2019-05-17T10:21:11.159Z,13.95
2019-05-17T10:24:19.906Z,13.97
2019-05-17T10:27:25.871Z,13.98
2019-05-17T10:30:32.458Z,14.08
2019-05-17T10:33:40.118Z,14.11
2019-05-17T10:36:50.670Z,14.08
2019-05-17T10:40:00.192Z,14.03
2019-05-17T10:43:06.798Z,13.86
2019-05-17T10:46:13.442Z,14.28
2019-05-17T10:49:20.355Z,14.33
2019-05-17T10:52:26.853Z,14.21
2019-05-17T10:55:33.613Z,14.74
2019-05-17T10:58:40.134Z,14.81
2019-05-17T11:01:50.147Z,14.50
2019-05-17T11:04:56.543Z,14.39
2019-05-17T11:08:03.409Z,14.28
2019-05-17T11:11:12.336Z,14.38
2019-05-17T11:14:18.799Z,15.15
2019-05-17T11:17:25.383Z,14.44
2019-05-17T11:20:31.944Z,14.44
2019-05-17T11:23:38.412Z,14.35
2019-05-17T11:26:47.173Z,14.23
2019-05-17T11:29:53.662Z,14.13
2019-05-17T11:33:01.337Z,14.28
2019-05-17T11:36:07.900Z,14.44
2019-05-17T11:39:14.333Z,14.50
2019-05-17T11:42:20.969Z,14.62
2019-05-17T11:45:31.868Z,14.65
2019-05-17T11:48:35.679Z,14.44
2019-05-17T11:51:42.188Z,14.50
2019-05-17T11:54:48.639Z,14.48
2019-05-17T11:57:57.473Z,14.43
2019-05-17T12:01:04.143Z,14.73
2019-05-17T12:04:10.735Z,14.68
2019-05-17T12:07:17.489Z,15.24
2019-05-17T12:10:24.288Z,15.32
2019-05-17T12:13:30.858Z,15.92
2019-05-17T12:16:37.464Z,15.75
2019-05-17T12:19:46.284Z,15.65
2019-05-17T12:22:52.942Z,14.99
2019-05-17T12:25:59.318Z,15.31
2019-05-17T12:29:05.939Z,15.33
2019-05-17T12:32:16.858Z,15.50
2019-05-17T12:35:20.237Z,15.51
2019-05-17T12:38:26.728Z,15.51
2019-05-17T12:41:33.307Z,15.37
2019-05-17T12:44:40.039Z,15.53
2019-05-17T12:47:48.787Z,15.79
2019-05-17T12:50:55.405Z,15.46
2019-05-17T12:54:01.878Z,15.76
2019-05-17T12:57:08.335Z,16.04
2019-05-17T13:00:15.446Z,15.62
2019-05-17T13:03:21.881Z,16.11
2019-05-17T13:06:28.335Z,16.28
2019-05-17T13:09:34.929Z,16.56
2019-05-17T13:12:41.764Z,16.96
2019-05-17T13:15:48.410Z,16.46
2019-05-17T13:18:54.909Z,16.23
2019-05-17T13:22:01.689Z,16.17
2019-05-17T13:25:09.063Z,16.39
2019-05-17T13:28:16.505Z,16.63
2019-05-17T13:31:23.139Z,16.38
2019-05-17T13:34:29.739Z,17.29
2019-05-17T13:37:38.813Z,17.84
2019-05-17T13:40:45.740Z,17.40
2019-05-17T13:43:52.464Z,17.62
2019-05-17T13:47:01.002Z,16.76
2019-05-17T13:50:08.436Z,17.13
2019-05-17T13:53:18.361Z,16.98
2019-05-17T13:56:24.867Z,16.38
2019-05-17T13:59:31.421Z,16.97
2019-05-17T14:02:38.101Z,16.78
2019-05-17T14:05:44.598Z,16.41
2019-05-17T14:08:51.146Z,16.43
2019-05-17T14:11:57.774Z,16.01
2019-05-17T14:15:06.164Z,15.91
2019-05-17T14:18:15.299Z,16.43
2019-05-17T14:21:21.947Z,16.64
2019-05-17T14:24:28.577Z,16.58
2019-05-17T14:27:35.143Z,16.83
2019-05-17T14:30:41.652Z,16.81
2019-05-17T14:33:48.469Z,16.67
2019-05-17T14:36:54.936Z,16.12
2019-05-17T14:40:01.437Z,16.57
2019-05-17T14:43:08.045Z,17.10
2019-05-17T14:46:14.704Z,16.74
2019-05-17T14:49:21.583Z,16.67
2019-05-17T14:52:28.965Z,16.59
2019-05-17T14:55:35.532Z,16.68
2019-05-17T14:58:42.137Z,16.39
2019-05-17T15:01:48.824Z,16.38
2019-05-17T15:04:55.351Z,16.92
2019-05-17T15:08:01.828Z,17.22
2019-05-17T15:11:08.403Z,17.11
2019-05-17T15:14:14.880Z,17.27
2019-05-17T15:17:21.585Z,17.23
2019-05-17T15:20:28.021Z,17.61
2019-05-17T15:23:34.584Z,17.72
2019-05-17T15:26:41.278Z,17.55
2019-05-17T15:29:48.263Z,17.43
2019-05-17T15:32:54.715Z,17.17
2019-05-17T15:36:01.341Z,16.88
2019-05-17T15:39:08.069Z,16.93
2019-05-17T15:42:14.610Z,16.53
2019-05-17T15:45:21.227Z,16.94
2019-05-17T15:48:27.698Z,16.97
2019-05-17T15:51:34.218Z,16.89
2019-05-17T15:54:42.464Z,16.78
2019-05-17T15:57:50.582Z,16.73
2019-05-17T16:00:57.100Z,16.38
2019-05-17T16:04:04.155Z,16.58
2019-05-17T16:07:10.732Z,16.80
2019-05-17T16:10:18.947Z,16.84
2019-05-17T16:13:25.471Z,16.50
2019-05-17T16:16:32.086Z,15.85
2019-05-17T16:19:38.842Z,15.89
2019-05-17T16:22:46.132Z,16.13
2019-05-17T16:25:52.745Z,16.01
2019-05-17T16:28:59.274Z,16.15
2019-05-17T16:32:05.979Z,16.16
2019-05-17T16:35:13.248Z,16.27
2019-05-17T16:38:20.237Z,16.18
2019-05-17T16:41:26.746Z,16.09
2019-05-17T16:44:33.633Z,16.05
2019-05-17T16:47:40.226Z,16.00
2019-05-17T16:50:47.155Z,16.02
2019-05-17T16:53:55.826Z,16.09
2019-05-17T16:57:02.419Z,15.95
2019-05-17T17:00:30.903Z,15.77
2019-05-17T17:03:44.257Z,15.69
2019-05-17T17:06:48.130Z,15.61
2019-05-17T17:09:55.762Z,15.59
2019-05-17T17:13:02.414Z,15.50
2019-05-17T17:16:09.236Z,15.46
2019-05-17T17:19:15.916Z,15.44
2019-05-17T17:22:22.784Z,15.40
2019-05-17T17:25:29.868Z,15.26
2019-05-17T17:28:36.404Z,15.26
2019-05-17T17:31:42.935Z,15.13
2019-05-17T17:34:49.672Z,15.04
2019-05-17T17:37:57.208Z,15.05
2019-05-17T17:41:03.754Z,15.06
2019-05-17T17:44:10.484Z,15.04
2019-05-17T17:47:16.992Z,14.93
2019-05-17T17:50:23.613Z,14.76
2019-05-17T17:53:30.220Z,14.87
2019-05-17T17:56:36.816Z,15.00
2019-05-17T17:59:45.667Z,14.64
2019-05-17T18:02:52.263Z,14.50
2019-05-17T18:05:58.827Z,14.23
2019-05-17T18:09:06.222Z,14.23
2019-05-17T18:12:12.959Z,14.28
2019-05-17T18:15:22.493Z,14.29
2019-05-17T18:18:29.257Z,14.30
2019-05-17T18:21:35.754Z,14.21
2019-05-17T18:24:42.494Z,14.02
2019-05-17T18:27:50.593Z,13.86
2019-05-17T18:30:57.244Z,13.78
2019-05-17T18:34:03.787Z,13.77
2019-05-17T18:37:10.285Z,13.73
2019-05-17T18:40:16.983Z,13.67
2019-05-17T18:43:26.239Z,13.46
2019-05-17T18:46:32.873Z,13.46
2019-05-17T18:49:39.428Z,13.13
2019-05-17T18:52:49.064Z,12.96
2019-05-17T18:55:55.752Z,12.41
2019-05-17T18:59:02.238Z,11.99
2019-05-17T19:02:08.768Z,12.16
2019-05-17T19:05:16.616Z,11.67
2019-05-17T19:08:23.460Z,12.00
2019-05-17T19:11:30.389Z,12.24
2019-05-17T19:14:42.823Z,12.06
2019-05-17T19:17:48.924Z,12.07
2019-05-17T19:20:55.573Z,11.84
2019-05-17T19:24:02.441Z,11.73
2019-05-17T19:27:10.221Z,11.25
2019-05-17T19:30:18.834Z,11.74
2019-05-17T19:33:26.319Z,11.32
2019-05-17T19:36:32.890Z,11.27
2019-05-17T19:39:39.321Z,11.29
2019-05-17T19:42:48.957Z,11.66
2019-05-17T19:45:55.512Z,11.59
2019-05-17T19:49:02.177Z,11.62
2019-05-17T19:52:08.741Z,11.00
2019-05-17T19:55:17.009Z,11.10
2019-05-17T19:58:23.431Z,11.51
2019-05-17T20:01:30.944Z,11.66
2019-05-17T20:04:37.445Z,11.14
2019-05-17T20:07:44.242Z,11.27
2019-05-17T20:10:52.629Z,10.88
2019-05-17T20:13:59.076Z,10.90
2019-05-17T20:17:05.552Z,10.93
2019-05-17T20:20:12.536Z,10.91
2019-05-17T20:23:20.186Z,10.90
2019-05-17T20:26:26.630Z,10.97
2019-05-17T20:29:33.597Z,11.00
2019-05-17T20:32:40.114Z,11.16
2019-05-17T20:35:49.566Z,11.05
2019-05-17T20:38:56.104Z,10.88
2019-05-17T20:42:02.568Z,10.86
2019-05-17T20:45:13.281Z,10.38
2019-05-17T20:48:20.285Z,9.95
2019-05-17T20:51:26.888Z,10.75
2019-05-17T20:54:35.758Z,10.39
2019-05-17T20:57:42.206Z,10.70
2019-05-17T21:00:50.430Z,10.53
2019-05-17T21:03:56.861Z,10.38
2019-05-17T21:07:03.267Z,9.60
2019-05-17T21:10:10.045Z,9.42
2019-05-17T21:13:16.512Z,8.94
2019-05-17T21:16:23.105Z,9.47
2019-05-17T21:19:29.705Z,9.28
2019-05-17T21:22:37.309Z,8.99
2019-05-17T21:25:45.114Z,8.50
2019-05-17T21:28:51.554Z,9.05
2019-05-17T21:31:59.195Z,8.66
2019-05-17T21:35:06.209Z,8.30
2019-05-17T21:38:12.770Z,8.77
2019-05-17T21:41:19.193Z,8.35
2019-05-17T21:44:25.839Z,7.93
2019-05-17T21:47:32.280Z,8.33
2019-05-17T21:50:39.247Z,7.34
2019-05-17T21:53:49.559Z,8.38
2019-05-17T21:56:56.031Z,8.27
2019-05-17T22:00:02.647Z,7.16
2019-05-17T22:03:10.732Z,7.69
2019-05-17T22:06:17.508Z,7.29
2019-05-17T22:09:24.058Z,7.90
2019-05-17T22:12:30.530Z,7.70
2019-05-17T22:15:37.043Z,8.10
2019-05-17T22:18:44.400Z,6.82
2019-05-17T22:21:50.894Z,6.68
2019-05-17T22:24:58.508Z,7.67
2019-05-17T22:28:04.972Z,7.59
2019-05-17T22:31:11.484Z,7.88
2019-05-17T22:34:19.519Z,6.76
2019-05-17T22:37:25.912Z,8.02
2019-05-17T22:40:32.386Z,7.05
2019-05-17T22:43:41.772Z,7.24
2019-05-17T22:46:48.225Z,6.86
2019-05-17T22:49:54.721Z,7.03
2019-05-17T22:53:01.702Z,6.32
2019-05-17T22:56:09.396Z,6.77
2019-05-17T22:59:16.024Z,6.06
2019-05-17T23:02:22.500Z,7.16
2019-05-17T23:05:28.998Z,6.54
2019-05-17T23:08:35.563Z,6.82
2019-05-17T23:11:42.042Z,5.83
2019-05-17T23:14:50.136Z,6.89
2019-05-17T23:17:56.820Z,6.31
2019-05-17T23:21:05.240Z,6.32
2019-05-17T23:24:11.784Z,6.34
2019-05-17T23:27:18.137Z,6.67
2019-05-17T23:30:24.609Z,6.42
2019-05-17T23:33:31.252Z,5.99
2019-05-17T23:36:38.735Z,6.52
2019-05-17T23:39:45.587Z,6.66
2019-05-17T23:42:52.017Z,6.11
2019-05-17T23:45:58.441Z,5.92
2019-05-17T23:49:05.012Z,6.08
2019-05-17T23:52:11.656Z,6.38
2019-05-17T23:55:19.153Z,5.96
2019-05-17T23:58:25.626Z,5.99
